sensor_id;sensor_type;location;lat;lon;timestamp;pressure;altitude;pressure_sealevel;temperature;humidity
67697;BME280;54486;51.442;6.778;2023-05-12T00:02:19;101186.66;;;13.40;100.00
67697;BME280;54486;51.442;6.778;2023-05-12T00:04:47;101175.31;;;13.39;100.00
67697;BME280;54486;51.442;6.778;2023-05-12T00:07:14;101176.19;;;13.38;100.00
67697;BME280;54486;51.442;6.778;2023-05-12T00:09:44;101169.19;;;13.39;100.00
67697;BME280;54486;51.442;6.778;2023-05-12T00:12:11;101168.28;;;13.43;100.00
67697;BME280;54486;51.442;6.778;2023-05-12T00:14:38;101169.94;;;13.47;100.00
67697;BME280;54486;51.442;6.778;2023-05-12T00:17:05;101163.81;;;13.48;100.00
67697;BME280;54486;51.442;6.778;2023-05-12T00:19:33;101158.66;;;13.42;100.00
67697;BME280;54486;51.442;6.778;2023-05-12T00:22:01;101156.13;;;13.36;100.00
67697;BME280;54486;51.442;6.778;2023-05-12T00:24:29;101147.38;;;13.35;100.00
67697;BME280;54486;51.442;6.778;2023-05-12T00:26:56;101151.78;;;13.32;100.00
67697;BME280;54486;51.442;6.778;2023-05-12T00:29:26;101145.72;;;13.30;100.00
67697;BME280;54486;51.442;6.778;2023-05-12T00:31:56;101144.94;;;13.21;100.00
67697;BME280;54486;51.442;6.778;2023-05-12T00:34:24;101142.31;;;13.21;100.00
67697;BME280;54486;51.442;6.778;2023-05-12T00:36:51;101137.91;;;13.27;100.00
67697;BME280;54486;51.442;6.778;2023-05-12T00:39:18;101132.72;;;13.20;100.00
67697;BME280;54486;51.442;6.778;2023-05-12T00:41:45;101129.25;;;13.18;100.00
67697;BME280;54486;51.442;6.778;2023-05-12T00:44:13;101122.28;;;13.17;100.00
67697;BME280;54486;51.442;6.778;2023-05-12T00:46:40;101128.38;;;13.18;100.00
67697;BME280;54486;51.442;6.778;2023-05-12T00:49:07;101126.59;;;13.21;100.00
67697;BME280;54486;51.442;6.778;2023-05-12T00:51:36;101129.16;;;13.24;100.00
67697;BME280;54486;51.442;6.778;2023-05-12T00:54:03;101117.88;;;13.19;100.00
67697;BME280;54486;51.442;6.778;2023-05-12T00:56:30;101118.75;;;13.18;100.00
67697;BME280;54486;51.442;6.778;2023-05-12T00:59:01;101122.22;;;13.23;100.00
67697;BME280;54486;51.442;6.778;2023-05-12T01:01:29;101121.34;;;13.21;100.00
67697;BME280;54486;51.442;6.778;2023-05-12T01:03:57;101115.22;;;13.22;100.00
67697;BME280;54486;51.442;6.778;2023-05-12T01:06:39;101116.97;;;13.23;100.00
67697;BME280;54486;51.442;6.778;2023-05-12T01:09:09;101121.38;;;13.20;100.00
67697;BME280;54486;51.442;6.778;2023-05-12T01:11:37;101115.22;;;13.22;100.00
67697;BME280;54486;51.442;6.778;2023-05-12T01:14:04;101118.72;;;13.23;100.00
67697;BME280;54486;51.442;6.778;2023-05-12T01:16:38;101111.69;;;13.25;100.00
67697;BME280;54486;51.442;6.778;2023-05-12T01:19:18;101109.94;;;13.25;100.00
67697;BME280;54486;51.442;6.778;2023-05-12T01:21:55;101107.31;;;13.25;100.00
67697;BME280;54486;51.442;6.778;2023-05-12T01:24:23;101115.16;;;13.29;100.00
67697;BME280;54486;51.442;6.778;2023-05-12T01:26:55;101107.28;;;13.29;100.00
67697;BME280;54486;51.442;6.778;2023-05-12T01:29:22;101104.66;;;13.29;100.00
67697;BME280;54486;51.442;6.778;2023-05-12T01:31:49;101101.16;;;13.30;100.00
67697;BME280;54486;51.442;6.778;2023-05-12T01:34:19;101104.56;;;13.35;100.00
67697;BME280;54486;51.442;6.778;2023-05-12T01:36:46;101103.66;;;13.37;100.00
67697;BME280;54486;51.442;6.778;2023-05-12T01:39:17;101104.50;;;13.41;100.00
67697;BME280;54486;51.442;6.778;2023-05-12T01:41:45;101097.50;;;13.43;100.00
67697;BME280;54486;51.442;6.778;2023-05-12T01:44:13;101100.94;;;13.45;100.00
67697;BME280;54486;51.442;6.778;2023-05-12T01:46:41;101100.91;;;13.48;100.00
67697;BME280;54486;51.442;6.778;2023-05-12T01:49:09;101102.66;;;13.49;100.00
67697;BME280;54486;51.442;6.778;2023-05-12T01:51:37;101107.84;;;13.52;100.00
67697;BME280;54486;51.442;6.778;2023-05-12T01:54:04;101102.56;;;13.55;100.00
67697;BME280;54486;51.442;6.778;2023-05-12T01:56:31;101104.31;;;13.56;100.00
67697;BME280;54486;51.442;6.778;2023-05-12T01:58:59;101105.97;;;13.60;100.00
67697;BME280;54486;51.442;6.778;2023-05-12T02:01:27;101111.22;;;13.60;100.00
67697;BME280;54486;51.442;6.778;2023-05-12T02:03:55;101105.91;;;13.63;100.00
67697;BME280;54486;51.442;6.778;2023-05-12T02:06:21;101112.03;;;13.63;100.00
67697;BME280;54486;51.442;6.778;2023-05-12T02:08:49;101107.63;;;13.67;100.00
67697;BME280;54486;51.442;6.778;2023-05-12T02:11:17;101109.34;;;13.68;100.00
67697;BME280;54486;51.442;6.778;2023-05-12T02:13:44;101111.06;;;13.69;100.00
67697;BME280;54486;51.442;6.778;2023-05-12T02:16:13;101111.94;;;13.71;100.00
67697;BME280;54486;51.442;6.778;2023-05-12T02:18:40;101114.56;;;13.71;100.00
67697;BME280;54486;51.442;6.778;2023-05-12T02:21:08;101113.69;;;13.72;100.00
67697;BME280;54486;51.442;6.778;2023-05-12T02:23:35;101119.81;;;13.71;100.00
67697;BME280;54486;51.442;6.778;2023-05-12T02:26:02;101116.31;;;13.72;100.00
67697;BME280;54486;51.442;6.778;2023-05-12T02:28:29;101113.63;;;13.73;100.00
67697;BME280;54486;51.442;6.778;2023-05-12T02:30:56;101116.25;;;13.75;100.00
67697;BME280;54486;51.442;6.778;2023-05-12T02:33:23;101117.13;;;13.74;100.00
67697;BME280;54486;51.442;6.778;2023-05-12T02:35:50;101121.50;;;13.75;100.00
67697;BME280;54486;51.442;6.778;2023-05-12T02:38:17;101119.75;;;13.74;100.00
67697;BME280;54486;51.442;6.778;2023-05-12T02:40:45;101112.78;;;13.73;100.00
67697;BME280;54486;51.442;6.778;2023-05-12T02:43:12;101125.91;;;13.71;100.00
67697;BME280;54486;51.442;6.778;2023-05-12T02:45:39;101123.34;;;13.67;100.00
67697;BME280;54486;51.442;6.778;2023-05-12T02:48:07;101123.44;;;13.61;100.00
67697;BME280;54486;51.442;6.778;2023-05-12T02:50:34;101123.50;;;13.58;100.00
67697;BME280;54486;51.442;6.778;2023-05-12T02:53:01;101134.06;;;13.52;100.00
67697;BME280;54486;51.442;6.778;2023-05-12T02:55:28;101141.06;;;13.50;100.00
67697;BME280;54486;51.442;6.778;2023-05-12T02:57:56;101134.16;;;13.46;100.00
67697;BME280;54486;51.442;6.778;2023-05-12T03:00:23;101137.66;;;13.45;100.00
67697;BME280;54486;51.442;6.778;2023-05-12T03:02:50;101139.44;;;13.43;100.00
67697;BME280;54486;51.442;6.778;2023-05-12T03:05:17;101142.06;;;13.41;100.00
67697;BME280;54486;51.442;6.778;2023-05-12T03:07:46;101142.97;;;13.39;100.00
67697;BME280;54486;51.442;6.778;2023-05-12T03:10:16;101147.34;;;13.38;100.00
67697;BME280;54486;51.442;6.778;2023-05-12T03:12:43;101146.47;;;13.38;100.00
67697;BME280;54486;51.442;6.778;2023-05-12T03:15:10;101149.13;;;13.36;100.00
67697;BME280;54486;51.442;6.778;2023-05-12T03:17:40;101156.97;;;13.38;100.00
67697;BME280;54486;51.442;6.778;2023-05-12T03:20:08;101146.47;;;13.38;100.00
67697;BME280;54486;51.442;6.778;2023-05-12T03:22:36;101146.47;;;13.38;100.00
67697;BME280;54486;51.442;6.778;2023-05-12T03:25:03;101150.00;;;13.37;100.00
67697;BME280;54486;51.442;6.778;2023-05-12T03:27:31;101144.75;;;13.37;100.00
67697;BME280;54486;51.442;6.778;2023-05-12T03:29:59;101144.81;;;13.34;100.00
67697;BME280;54486;51.442;6.778;2023-05-12T03:32:27;101145.69;;;13.31;100.00
67697;BME280;54486;51.442;6.778;2023-05-12T03:34:54;101147.47;;;13.27;100.00
67697;BME280;54486;51.442;6.778;2023-05-12T03:37:21;101151.84;;;13.29;100.00
67697;BME280;54486;51.442;6.778;2023-05-12T03:39:51;101155.34;;;13.27;100.00
67697;BME280;54486;51.442;6.778;2023-05-12T03:42:21;101159.72;;;13.27;100.00
67697;BME280;54486;51.442;6.778;2023-05-12T03:44:52;101162.38;;;13.24;100.00
67697;BME280;54486;51.442;6.778;2023-05-12T03:47:19;101163.25;;;13.23;100.00
67697;BME280;54486;51.442;6.778;2023-05-12T03:49:46;101165.88;;;13.21;100.00
67697;BME280;54486;51.442;6.778;2023-05-12T03:52:16;101164.19;;;13.20;100.00
67697;BME280;54486;51.442;6.778;2023-05-12T03:54:43;101162.44;;;13.19;100.00
67697;BME280;54486;51.442;6.778;2023-05-12T03:57:11;101165.94;;;13.18;100.00
67697;BME280;54486;51.442;6.778;2023-05-12T03:59:41;101176.41;;;13.18;100.00
67697;BME280;54486;51.442;6.778;2023-05-12T04:02:08;101179.03;;;13.18;100.00
67697;BME280;54486;51.442;6.778;2023-05-12T04:04:40;101172.06;;;13.16;100.00
67697;BME280;54486;51.442;6.778;2023-05-12T04:07:07;101188.63;;;13.18;100.00
67697;BME280;54486;51.442;6.778;2023-05-12T04:09:34;101190.47;;;13.14;100.00
67697;BME280;54486;51.442;6.778;2023-05-12T04:12:01;101192.16;;;13.15;100.00
67697;BME280;54486;51.442;6.778;2023-05-12T04:14:31;101190.47;;;13.14;100.00
67697;BME280;54486;51.442;6.778;2023-05-12T04:17:08;101197.41;;;13.15;100.00
67697;BME280;54486;51.442;6.778;2023-05-12T04:19:35;101193.91;;;13.16;100.00
67697;BME280;54486;51.442;6.778;2023-05-12T04:22:03;101200.91;;;13.17;100.00
67697;BME280;54486;51.442;6.778;2023-05-12T04:24:29;101200.06;;;13.14;100.00
67697;BME280;54486;51.442;6.778;2023-05-12T04:26:57;101200.94;;;13.13;100.00
67697;BME280;54486;51.442;6.778;2023-05-12T04:29:24;101204.44;;;13.13;100.00
67697;BME280;54486;51.442;6.778;2023-05-12T04:31:53;101209.66;;;13.13;100.00
67697;BME280;54486;51.442;6.778;2023-05-12T04:34:21;101211.41;;;13.14;100.00
67697;BME280;54486;51.442;6.778;2023-05-12T04:36:50;101216.66;;;13.14;100.00
67697;BME280;54486;51.442;6.778;2023-05-12T04:39:17;101211.41;;;13.14;100.00
67697;BME280;54486;51.442;6.778;2023-05-12T04:41:44;101215.78;;;13.14;100.00
67697;BME280;54486;51.442;6.778;2023-05-12T04:44:11;101218.38;;;13.15;100.00
67697;BME280;54486;51.442;6.778;2023-05-12T04:46:38;101211.38;;;13.17;100.00
67697;BME280;54486;51.442;6.778;2023-05-12T04:49:05;101226.19;;;13.18;100.00
67697;BME280;54486;51.442;6.778;2023-05-12T04:51:34;101228.81;;;13.18;100.00
67697;BME280;54486;51.442;6.778;2023-05-12T04:54:10;101235.84;;;13.16;100.00
67697;BME280;54486;51.442;6.778;2023-05-12T04:56:37;101235.88;;;13.13;100.00
67697;BME280;54486;51.442;6.778;2023-05-12T04:59:04;101240.25;;;13.11;100.00
67697;BME280;54486;51.442;6.778;2023-05-12T05:01:32;101248.97;;;13.13;100.00
67697;BME280;54486;51.442;6.778;2023-05-12T05:03:59;101248.94;;;13.16;100.00
67697;BME280;54486;51.442;6.778;2023-05-12T05:06:27;101258.56;;;13.17;100.00
67697;BME280;54486;51.442;6.778;2023-05-12T05:08:55;101255.91;;;13.19;100.00
67697;BME280;54486;51.442;6.778;2023-05-12T05:11:24;101260.22;;;13.21;100.00
67697;BME280;54486;51.442;6.778;2023-05-12T05:13:51;101261.97;;;13.22;100.00
67697;BME280;54486;51.442;6.778;2023-05-12T05:16:18;101275.91;;;13.24;100.00
67697;BME280;54486;51.442;6.778;2023-05-12T05:18:45;101276.78;;;13.27;100.00
67697;BME280;54486;51.442;6.778;2023-05-12T05:21:13;101280.25;;;13.30;100.00
67697;BME280;54486;51.442;6.778;2023-05-12T05:23:41;101280.19;;;13.35;100.00
67697;BME280;54486;51.442;6.778;2023-05-12T05:26:08;101283.72;;;13.34;100.00
67697;BME280;54486;51.442;6.778;2023-05-12T05:28:35;101284.56;;;13.36;100.00
67697;BME280;54486;51.442;6.778;2023-05-12T05:31:03;101282.81;;;13.35;100.00
67697;BME280;54486;51.442;6.778;2023-05-12T05:33:30;101295.91;;;13.36;100.00
67697;BME280;54486;51.442;6.778;2023-05-12T05:35:58;101294.16;;;13.37;100.00
67697;BME280;54486;51.442;6.778;2023-05-12T05:38:25;101298.50;;;13.38;100.00
67697;BME280;54486;51.442;6.778;2023-05-12T05:40:53;101300.22;;;13.42;100.00
67697;BME280;54486;51.442;6.778;2023-05-12T05:43:20;101302.84;;;13.43;100.00
67697;BME280;54486;51.442;6.778;2023-05-12T05:45:47;101310.63;;;13.48;100.00
67697;BME280;54486;51.442;6.778;2023-05-12T05:48:18;101311.50;;;13.48;100.00
67697;BME280;54486;51.442;6.778;2023-05-12T05:50:45;101324.59;;;13.53;100.00
67697;BME280;54486;51.442;6.778;2023-05-12T05:53:15;101322.75;;;13.58;100.00
67697;BME280;54486;51.442;6.778;2023-05-12T05:55:44;101321.00;;;13.57;100.00
67697;BME280;54486;51.442;6.778;2023-05-12T05:58:11;101329.69;;;13.65;100.00
67697;BME280;54486;51.442;6.778;2023-05-12T06:00:39;101330.50;;;13.71;100.00
67697;BME280;54486;51.442;6.778;2023-05-12T06:03:06;101331.28;;;13.78;100.00
67697;BME280;54486;51.442;6.778;2023-05-12T06:05:34;101331.22;;;13.84;100.00
67697;BME280;54486;51.442;6.778;2023-05-12T06:08:01;101332.94;;;13.85;100.00
67697;BME280;54486;51.442;6.778;2023-05-12T06:10:28;101334.69;;;13.86;100.00
67697;BME280;54486;51.442;6.778;2023-05-12T06:12:55;101340.78;;;13.87;100.00
67697;BME280;54486;51.442;6.778;2023-05-12T06:15:24;101346.91;;;13.87;100.00
67697;BME280;54486;51.442;6.778;2023-05-12T06:17:52;101350.44;;;13.83;100.00
67697;BME280;54486;51.442;6.778;2023-05-12T06:20:18;101351.25;;;13.88;100.00
67697;BME280;54486;51.442;6.778;2023-05-12T06:22:47;101347.75;;;13.89;100.00
67697;BME280;54486;51.442;6.778;2023-05-12T06:25:14;101357.34;;;13.93;100.00
67697;BME280;54486;51.442;6.778;2023-05-12T06:27:41;101356.38;;;13.99;100.00
67697;BME280;54486;51.442;6.778;2023-05-12T06:30:08;101353.72;;;14.03;100.00
67697;BME280;54486;51.442;6.778;2023-05-12T06:32:41;101362.44;;;14.05;100.00
67697;BME280;54486;51.442;6.778;2023-05-12T06:35:11;101359.72;;;14.13;100.00
67697;BME280;54486;51.442;6.778;2023-05-12T06:37:38;101365.72;;;14.22;100.00
67697;BME280;54486;51.442;6.778;2023-05-12T06:40:05;101361.22;;;14.30;100.00
67697;BME280;54486;51.442;6.778;2023-05-12T06:42:33;101369.00;;;14.40;100.00
67697;BME280;54486;51.442;6.778;2023-05-12T06:44:59;101369.78;;;14.48;100.00
67697;BME280;54486;51.442;6.778;2023-05-12T06:47:27;101373.19;;;14.53;100.00
67697;BME280;54486;51.442;6.778;2023-05-12T06:49:54;101366.19;;;14.55;100.00
67697;BME280;54486;51.442;6.778;2023-05-12T06:52:21;101373.09;;;14.60;100.00
67697;BME280;54486;51.442;6.778;2023-05-12T06:54:50;101385.34;;;14.61;100.00
67697;BME280;54486;51.442;6.778;2023-05-12T06:57:16;101380.06;;;14.64;100.00
67697;BME280;54486;51.442;6.778;2023-05-12T06:59:43;101384.41;;;14.67;100.00
67697;BME280;54486;51.442;6.778;2023-05-12T07:02:10;101386.06;;;14.71;100.00
67697;BME280;54486;51.442;6.778;2023-05-12T07:04:37;101393.06;;;14.72;100.00
67697;BME280;54486;51.442;6.778;2023-05-12T07:07:07;101387.75;;;14.75;100.00
67697;BME280;54486;51.442;6.778;2023-05-12T07:09:34;101389.56;;;14.73;100.00
67697;BME280;54486;51.442;6.778;2023-05-12T07:12:01;101396.63;;;14.68;100.00
67697;BME280;54486;51.442;6.778;2023-05-12T07:14:29;101395.78;;;14.66;100.00
67697;BME280;54486;51.442;6.778;2023-05-12T07:16:56;101395.00;;;14.61;100.00
67697;BME280;54486;51.442;6.778;2023-05-12T07:19:23;101401.13;;;14.61;100.00
67697;BME280;54486;51.442;6.778;2023-05-12T07:21:51;101403.69;;;14.64;100.00
67697;BME280;54486;51.442;6.778;2023-05-12T07:24:17;101396.72;;;14.62;100.00
67697;BME280;54486;51.442;6.778;2023-05-12T07:26:45;101408.81;;;14.72;100.00
67697;BME280;54486;51.442;6.778;2023-05-12T07:29:12;101406.28;;;14.67;100.00
67697;BME280;54486;51.442;6.778;2023-05-12T07:31:40;101401.88;;;14.68;100.00
67697;BME280;54486;51.442;6.778;2023-05-12T07:34:07;101406.31;;;14.64;100.00
67697;BME280;54486;51.442;6.778;2023-05-12T07:36:34;101405.38;;;14.70;100.00
67697;BME280;54486;51.442;6.778;2023-05-12T07:39:01;101403.63;;;14.69;100.00
67697;BME280;54486;51.442;6.778;2023-05-12T07:41:29;101403.56;;;14.72;100.00
67697;BME280;54486;51.442;6.778;2023-05-12T07:43:58;101416.75;;;14.70;100.00
67697;BME280;54486;51.442;6.778;2023-05-12T07:46:25;101411.59;;;14.64;100.00
67697;BME280;54486;51.442;6.778;2023-05-12T07:48:52;101414.22;;;14.63;100.00
67697;BME280;54486;51.442;6.778;2023-05-12T07:51:19;101417.75;;;14.59;100.00
67697;BME280;54486;51.442;6.778;2023-05-12T07:53:46;101421.34;;;14.55;100.00
67697;BME280;54486;51.442;6.778;2023-05-12T07:56:13;101419.59;;;14.54;100.00
67697;BME280;54486;51.442;6.778;2023-05-12T07:58:40;101426.63;;;14.52;100.00
67697;BME280;54486;51.442;6.778;2023-05-12T08:01:07;101426.63;;;14.52;100.00
67697;BME280;54486;51.442;6.778;2023-05-12T08:03:36;101434.47;;;14.55;100.00
67697;BME280;54486;51.442;6.778;2023-05-12T08:06:03;101435.31;;;14.57;100.00
67697;BME280;54486;51.442;6.778;2023-05-12T08:08:33;101432.69;;;14.55;100.00
67697;BME280;54486;51.442;6.778;2023-05-12T08:11:00;101436.97;;;14.64;100.00
67697;BME280;54486;51.442;6.778;2023-05-12T08:13:27;101443.91;;;14.68;100.00
67697;BME280;54486;51.442;6.778;2023-05-12T08:15:53;101442.06;;;14.76;100.00
67697;BME280;54486;51.442;6.778;2023-05-12T08:18:20;101441.13;;;14.78;100.00
67697;BME280;54486;51.442;6.778;2023-05-12T08:20:48;101450.69;;;14.84;100.00
67697;BME280;54486;51.442;6.778;2023-05-12T08:23:19;101441.84;;;14.91;100.00
67697;BME280;54486;51.442;6.778;2023-05-12T08:25:46;101438.22;;;14.98;100.00
67697;BME280;54486;51.442;6.778;2023-05-12T08:28:16;101453.81;;;15.10;100.00
67697;BME280;54486;51.442;6.778;2023-05-12T08:30:43;101441.44;;;15.18;100.00
67697;BME280;54486;51.442;6.778;2023-05-12T08:33:11;101448.31;;;15.25;100.00
67697;BME280;54486;51.442;6.778;2023-05-12T08:35:38;101449.13;;;15.30;100.00
67697;BME280;54486;51.442;6.778;2023-05-12T08:38:06;101451.75;;;15.30;100.00
67697;BME280;54486;51.442;6.778;2023-05-12T08:40:43;101449.03;;;15.35;100.00
67697;BME280;54486;51.442;6.778;2023-05-12T08:43:22;101452.53;;;15.35;100.00
67697;BME280;54486;51.442;6.778;2023-05-12T08:45:52;101456.84;;;15.40;100.00
67697;BME280;54486;51.442;6.778;2023-05-12T08:48:24;101468.22;;;15.42;100.00
67697;BME280;54486;51.442;6.778;2023-05-12T08:50:53;101461.13;;;15.45;100.00
67697;BME280;54486;51.442;6.778;2023-05-12T08:53:22;101474.34;;;15.44;97.81
67697;BME280;54486;51.442;6.778;2023-05-12T08:55:50;101465.50;;;15.48;100.00
67697;BME280;54486;51.442;6.778;2023-05-12T08:58:37;101474.25;;;15.50;99.42
67697;BME280;54486;51.442;6.778;2023-05-12T09:01:10;101476.00;;;15.51;98.09
67697;BME280;54486;51.442;6.778;2023-05-12T09:03:38;101465.38;;;15.57;98.65
67697;BME280;54486;51.442;6.778;2023-05-12T09:06:07;101472.34;;;15.58;97.85
67697;BME280;54486;51.442;6.778;2023-05-12T09:08:35;101474.00;;;15.65;97.64
67697;BME280;54486;51.442;6.778;2023-05-12T09:11:02;101475.59;;;15.75;97.32
67697;BME280;54486;51.442;6.778;2023-05-12T09:16:24;101486.34;;;16.10;96.92
67697;BME280;54486;51.442;6.778;2023-05-12T09:18:55;101478.22;;;16.22;94.50
67697;BME280;54486;51.442;6.778;2023-05-12T09:21:22;101479.78;;;16.32;94.95
67697;BME280;54486;51.442;6.778;2023-05-12T09:23:56;101472.44;;;16.47;95.52
67697;BME280;54486;51.442;6.778;2023-05-12T09:26:27;101482.00;;;16.52;93.99
67697;BME280;54486;51.442;6.778;2023-05-12T09:29:05;101482.84;;;16.56;91.63
67697;BME280;54486;51.442;6.778;2023-05-12T09:31:57;101486.38;;;16.55;91.28
67697;BME280;54486;51.442;6.778;2023-05-12T09:34:33;101486.38;;;16.55;91.97
67697;BME280;54486;51.442;6.778;2023-05-12T09:37:06;101492.53;;;16.55;90.08
67697;BME280;54486;51.442;6.778;2023-05-12T09:39:34;101484.56;;;16.57;89.71
67697;BME280;54486;51.442;6.778;2023-05-12T09:42:02;101488.13;;;16.56;91.39
67697;BME280;54486;51.442;6.778;2023-05-12T09:44:30;101481.88;;;16.60;90.30
67697;BME280;54486;51.442;6.778;2023-05-12T09:47:07;101484.38;;;16.66;89.07
67697;BME280;54486;51.442;6.778;2023-05-12T09:49:36;101487.78;;;16.71;88.42
67697;BME280;54486;51.442;6.778;2023-05-12T09:52:04;101495.50;;;16.78;88.29
67697;BME280;54486;51.442;6.778;2023-05-12T09:54:32;101481.25;;;16.88;86.89
67697;BME280;54486;51.442;6.778;2023-05-12T09:57:03;101480.13;;;17.00;85.88
67697;BME280;54486;51.442;6.778;2023-05-12T09:59:35;101487.75;;;17.11;86.25
67697;BME280;54486;51.442;6.778;2023-05-12T10:02:06;101488.34;;;17.23;85.78
67697;BME280;54486;51.442;6.778;2023-05-12T10:04:48;101493.63;;;17.23;83.19
67697;BME280;54486;51.442;6.778;2023-05-12T10:07:18;101490.91;;;17.26;83.28
67697;BME280;54486;51.442;6.778;2023-05-12T10:09:48;101496.81;;;17.37;85.55
67697;BME280;54486;51.442;6.778;2023-05-12T10:12:16;101493.09;;;17.46;86.43
67697;BME280;54486;51.442;6.778;2023-05-12T10:14:45;101485.88;;;17.53;82.00
67697;BME280;54486;51.442;6.778;2023-05-12T10:17:13;101486.75;;;17.55;82.80
67697;BME280;54486;51.442;6.778;2023-05-12T10:19:41;101485.59;;;17.65;80.01
67697;BME280;54486;51.442;6.778;2023-05-12T10:22:09;101492.78;;;17.61;82.14
67697;BME280;54486;51.442;6.778;2023-05-12T10:24:36;101485.88;;;17.53;80.13
67697;BME280;54486;51.442;6.778;2023-05-12T10:27:05;101494.00;;;17.45;79.39
67697;BME280;54486;51.442;6.778;2023-05-12T10:29:33;101494.00;;;17.45;81.59
67697;BME280;54486;51.442;6.778;2023-05-12T10:32:01;101491.31;;;17.46;79.84
67697;BME280;54486;51.442;6.778;2023-05-12T10:34:32;101487.78;;;17.48;81.52
67697;BME280;54486;51.442;6.778;2023-05-12T10:37:00;101488.72;;;17.45;80.15
67697;BME280;54486;51.442;6.778;2023-05-12T10:39:30;101492.91;;;17.54;80.72
67697;BME280;54486;51.442;6.778;2023-05-12T10:42:09;101492.72;;;17.63;79.48
67697;BME280;54486;51.442;6.778;2023-05-12T10:44:48;101494.22;;;17.73;76.75
67697;BME280;54486;51.442;6.778;2023-05-12T10:47:16;101499.19;;;17.85;78.03
67697;BME280;54486;51.442;6.778;2023-05-12T10:49:44;101496.13;;;18.00;77.40
67697;BME280;54486;51.442;6.778;2023-05-12T10:52:12;101498.22;;;18.21;79.39
67697;BME280;54486;51.442;6.778;2023-05-12T10:54:46;101492.50;;;18.36;76.68
67697;BME280;54486;51.442;6.778;2023-05-12T10:57:18;101488.56;;;18.53;77.91
67697;BME280;54486;51.442;6.778;2023-05-12T10:59:57;101491.00;;;18.60;74.71
67697;BME280;54486;51.442;6.778;2023-05-12T11:02:28;101492.22;;;18.78;76.54
67697;BME280;54486;51.442;6.778;2023-05-12T11:10:07;101495.56;;;19.12;72.15
67697;BME280;54486;51.442;6.778;2023-05-12T11:12:35;101491.91;;;19.16;70.68
67697;BME280;54486;51.442;6.778;2023-05-12T11:15:04;101489.72;;;19.30;71.24
67697;BME280;54486;51.442;6.778;2023-05-12T11:17:31;101487.59;;;19.41;71.96
67697;BME280;54486;51.442;6.778;2023-05-12T11:19:59;101493.25;;;19.57;70.97
67697;BME280;54486;51.442;6.778;2023-05-12T11:22:27;101496.25;;;19.73;71.32
67697;BME280;54486;51.442;6.778;2023-05-12T11:24:55;101489.31;;;19.95;71.01
67697;BME280;54486;51.442;6.778;2023-05-12T11:27:23;101497.75;;;20.06;68.84
67697;BME280;54486;51.442;6.778;2023-05-12T11:30:00;101496.63;;;20.13;67.02
67697;BME280;54486;51.442;6.778;2023-05-12T11:32:28;101495.69;;;20.14;66.95
67697;BME280;54486;51.442;6.778;2023-05-12T11:35:16;101500.78;;;20.20;68.40
67697;BME280;54486;51.442;6.778;2023-05-12T11:37:44;101497.22;;;20.21;66.13
67697;BME280;54486;51.442;6.778;2023-05-12T11:40:19;101494.66;;;20.18;67.18
67697;BME280;54486;51.442;6.778;2023-05-12T11:42:48;101497.94;;;20.26;66.20
67697;BME280;54486;51.442;6.778;2023-05-12T11:45:26;101498.94;;;20.22;65.10
67697;BME280;54486;51.442;6.778;2023-05-12T11:48:09;101490.16;;;20.20;66.19
67697;BME280;54486;51.442;6.778;2023-05-12T11:50:39;101498.13;;;20.20;67.48
67697;BME280;54486;51.442;6.778;2023-05-12T11:53:10;101499.72;;;20.26;67.91
67697;BME280;54486;51.442;6.778;2023-05-12T11:55:50;101500.50;;;20.29;68.19
67697;BME280;54486;51.442;6.778;2023-05-12T11:58:26;101503.19;;;20.28;64.71
67697;BME280;54486;51.442;6.778;2023-05-12T12:00:56;101513.13;;;20.21;63.50
67697;BME280;54486;51.442;6.778;2023-05-12T12:03:44;101509.00;;;20.13;64.69
67697;BME280;54486;51.442;6.778;2023-05-12T12:06:12;101509.88;;;20.13;65.30
67697;BME280;54486;51.442;6.778;2023-05-12T12:09:07;101507.81;;;20.21;65.17
67697;BME280;54486;51.442;6.778;2023-05-12T12:11:39;101513.00;;;20.24;64.88
67697;BME280;54486;51.442;6.778;2023-05-12T12:14:06;101516.50;;;20.26;64.63
67697;BME280;54486;51.442;6.778;2023-05-12T12:16:33;101512.06;;;20.27;67.23
67697;BME280;54486;51.442;6.778;2023-05-12T12:19:00;101512.13;;;20.24;65.16
67697;BME280;54486;51.442;6.778;2023-05-12T12:21:27;101514.97;;;20.19;65.12
67697;BME280;54486;51.442;6.778;2023-05-12T12:23:55;101523.25;;;20.10;68.16
67697;BME280;54486;51.442;6.778;2023-05-12T12:26:23;101517.22;;;20.05;68.33
67697;BME280;54486;51.442;6.778;2023-05-12T12:28:50;101519.38;;;19.94;67.98
67697;BME280;54486;51.442;6.778;2023-05-12T12:31:17;101529.97;;;19.94;67.17
67697;BME280;54486;51.442;6.778;2023-05-12T12:33:45;101524.88;;;19.88;67.50
67697;BME280;54486;51.442;6.778;2023-05-12T12:36:12;101519.66;;;19.85;68.62
67697;BME280;54486;51.442;6.778;2023-05-12T12:38:39;101517.97;;;19.84;69.05
67697;BME280;54486;51.442;6.778;2023-05-12T12:41:07;101528.34;;;19.90;69.14
67697;BME280;54486;51.442;6.778;2023-05-12T12:43:34;101524.56;;;19.97;68.62
67697;BME280;54486;51.442;6.778;2023-05-12T12:46:01;101524.47;;;20.00;67.48
67697;BME280;54486;51.442;6.778;2023-05-12T12:48:29;101521.00;;;19.98;69.29
67697;BME280;54486;51.442;6.778;2023-05-12T12:50:59;101521.00;;;19.98;69.29
67697;BME280;54486;51.442;6.778;2023-05-12T12:53:26;101522.84;;;19.96;67.11
67697;BME280;54486;51.442;6.778;2023-05-12T12:55:54;101528.13;;;19.96;67.31
67697;BME280;54486;51.442;6.778;2023-05-12T12:58:22;101529.00;;;19.96;68.22
67697;BME280;54486;51.442;6.778;2023-05-12T13:00:49;101526.41;;;19.95;66.99